sensor_id;sensor_type;location;lat;lon;timestamp;P1;durP1;ratioP1;P2;durP2;ratioP2
47575;SDS011;33304;52.456;13.328;2023-07-16T00:02:22;67.87;;;65.13;;
47575;SDS011;33304;52.456;13.328;2023-07-16T00:04:49;107.05;;;102.85;;
47575;SDS011;33304;52.456;13.328;2023-07-16T00:07:16;101.97;;;98.00;;
47575;SDS011;33304;52.456;13.328;2023-07-16T00:09:43;77.47;;;74.37;;
47575;SDS011;33304;52.456;13.328;2023-07-16T00:12:10;66.93;;;64.23;;
47575;SDS011;33304;52.456;13.328;2023-07-16T00:14:39;59.70;;;57.13;;
47575;SDS011;33304;52.456;13.328;2023-07-16T00:17:06;60.03;;;57.60;;
47575;SDS011;33304;52.456;13.328;2023-07-16T00:19:33;42.40;;;40.57;;
47575;SDS011;33304;52.456;13.328;2023-07-16T00:22:00;33.33;;;31.93;;
47575;SDS011;33304;52.456;13.328;2023-07-16T00:24:27;62.13;;;59.60;;
47575;SDS011;33304;52.456;13.328;2023-07-16T00:26:54;80.33;;;77.10;;
47575;SDS011;33304;52.456;13.328;2023-07-16T00:29:22;118.73;;;114.07;;
47575;SDS011;33304;52.456;13.328;2023-07-16T00:31:50;114.27;;;109.73;;
47575;SDS011;33304;52.456;13.328;2023-07-16T00:34:17;105.90;;;101.77;;
47575;SDS011;33304;52.456;13.328;2023-07-16T00:36:44;106.60;;;102.43;;
47575;SDS011;33304;52.456;13.328;2023-07-16T00:39:12;97.97;;;94.07;;
47575;SDS011;33304;52.456;13.328;2023-07-16T00:41:39;98.10;;;94.23;;
47575;SDS011;33304;52.456;13.328;2023-07-16T00:44:06;95.20;;;91.47;;
47575;SDS011;33304;52.456;13.328;2023-07-16T00:46:33;119.47;;;114.50;;
47575;SDS011;33304;52.456;13.328;2023-07-16T00:49:02;109.57;;;105.23;;
47575;SDS011;33304;52.456;13.328;2023-07-16T00:51:29;112.37;;;107.83;;
47575;SDS011;33304;52.456;13.328;2023-07-16T00:53:57;101.17;;;97.17;;
47575;SDS011;33304;52.456;13.328;2023-07-16T00:56:24;100.83;;;96.90;;
47575;SDS011;33304;52.456;13.328;2023-07-16T00:58:51;142.83;;;136.50;;
47575;SDS011;33304;52.456;13.328;2023-07-16T01:01:20;131.10;;;125.53;;
47575;SDS011;33304;52.456;13.328;2023-07-16T01:03:47;92.30;;;88.60;;
47575;SDS011;33304;52.456;13.328;2023-07-16T01:06:18;107.47;;;102.97;;
47575;SDS011;33304;52.456;13.328;2023-07-16T01:08:49;175.60;;;167.10;;
47575;SDS011;33304;52.456;13.328;2023-07-16T01:11:23;242.30;;;229.90;;
47575;SDS011;33304;52.456;13.328;2023-07-16T01:13:51;302.53;;;285.00;;
47575;SDS011;33304;52.456;13.328;2023-07-16T01:16:19;372.80;;;349.40;;
47575;SDS011;33304;52.456;13.328;2023-07-16T01:18:46;331.93;;;312.20;;
47575;SDS011;33304;52.456;13.328;2023-07-16T01:21:16;334.37;;;314.00;;
47575;SDS011;33304;52.456;13.328;2023-07-16T01:23:50;95.97;;;91.67;;
47575;SDS011;33304;52.456;13.328;2023-07-16T01:26:36;180.53;;;171.60;;
47575;SDS011;33304;52.456;13.328;2023-07-16T01:32:08;138.70;;;131.87;;
47575;SDS011;33304;52.456;13.328;2023-07-16T01:34:37;166.90;;;158.57;;
47575;SDS011;33304;52.456;13.328;2023-07-16T01:37:05;343.43;;;321.97;;
47575;SDS011;33304;52.456;13.328;2023-07-16T01:39:33;115.83;;;110.67;;
47575;SDS011;33304;52.456;13.328;2023-07-16T01:42:00;79.07;;;75.67;;
47575;SDS011;33304;52.456;13.328;2023-07-16T01:44:28;65.83;;;63.10;;
47575;SDS011;33304;52.456;13.328;2023-07-16T01:47:03;32.67;;;31.37;;
47575;SDS011;33304;52.456;13.328;2023-07-16T01:49:34;67.90;;;65.20;;
47575;SDS011;33304;52.456;13.328;2023-07-16T01:52:02;49.27;;;47.20;;
47575;SDS011;33304;52.456;13.328;2023-07-16T01:54:30;67.20;;;64.33;;
47575;SDS011;33304;52.456;13.328;2023-07-16T01:56:57;24.10;;;23.03;;
47575;SDS011;33304;52.456;13.328;2023-07-16T01:59:24;28.97;;;27.63;;
47575;SDS011;33304;52.456;13.328;2023-07-16T02:01:54;21.03;;;20.07;;
47575;SDS011;33304;52.456;13.328;2023-07-16T02:04:23;35.67;;;34.20;;
47575;SDS011;33304;52.456;13.328;2023-07-16T02:06:50;11.63;;;11.17;;
47575;SDS011;33304;52.456;13.328;2023-07-16T02:09:20;27.03;;;25.87;;
47575;SDS011;33304;52.456;13.328;2023-07-16T02:11:47;6.67;;;6.37;;
47575;SDS011;33304;52.456;13.328;2023-07-16T02:14:15;16.73;;;16.03;;
47575;SDS011;33304;52.456;13.328;2023-07-16T02:16:42;5.23;;;4.93;;
47575;SDS011;33304;52.456;13.328;2023-07-16T02:19:09;20.90;;;20.00;;
47575;SDS011;33304;52.456;13.328;2023-07-16T02:21:37;117.27;;;111.77;;
47575;SDS011;33304;52.456;13.328;2023-07-16T02:24:04;144.47;;;136.67;;
47575;SDS011;33304;52.456;13.328;2023-07-16T02:26:32;320.10;;;298.57;;
47575;SDS011;33304;52.456;13.328;2023-07-16T02:28:59;339.33;;;319.20;;
47575;SDS011;33304;52.456;13.328;2023-07-16T02:31:26;301.17;;;282.60;;
47575;SDS011;33304;52.456;13.328;2023-07-16T02:33:53;346.27;;;324.83;;
47575;SDS011;33304;52.456;13.328;2023-07-16T02:36:20;285.63;;;269.60;;
47575;SDS011;33304;52.456;13.328;2023-07-16T02:38:50;196.97;;;186.33;;
47575;SDS011;33304;52.456;13.328;2023-07-16T02:41:17;218.60;;;206.90;;
47575;SDS011;33304;52.456;13.328;2023-07-16T02:43:45;149.87;;;141.40;;
47575;SDS011;33304;52.456;13.328;2023-07-16T02:46:13;164.70;;;155.60;;
47575;SDS011;33304;52.456;13.328;2023-07-16T02:48:40;138.80;;;131.60;;
47575;SDS011;33304;52.456;13.328;2023-07-16T02:51:08;149.47;;;141.67;;
47575;SDS011;33304;52.456;13.328;2023-07-16T02:53:35;140.57;;;133.10;;
47575;SDS011;33304;52.456;13.328;2023-07-16T02:56:03;98.47;;;93.50;;
47575;SDS011;33304;52.456;13.328;2023-07-16T02:58:31;179.77;;;170.73;;
47575;SDS011;33304;52.456;13.328;2023-07-16T03:00:59;85.33;;;81.37;;
47575;SDS011;33304;52.456;13.328;2023-07-16T03:03:26;139.03;;;132.47;;
47575;SDS011;33304;52.456;13.328;2023-07-16T03:05:55;104.90;;;99.93;;
47575;SDS011;33304;52.456;13.328;2023-07-16T03:08:23;92.93;;;88.47;;
47575;SDS011;33304;52.456;13.328;2023-07-16T03:10:55;64.03;;;60.87;;
47575;SDS011;33304;52.456;13.328;2023-07-16T03:13:24;99.63;;;94.93;;
47575;SDS011;33304;52.456;13.328;2023-07-16T03:15:51;66.53;;;63.57;;
47575;SDS011;33304;52.456;13.328;2023-07-16T03:18:18;25.33;;;24.10;;
47575;SDS011;33304;52.456;13.328;2023-07-16T03:20:46;19.37;;;18.47;;
47575;SDS011;33304;52.456;13.328;2023-07-16T03:23:13;33.23;;;31.67;;
47575;SDS011;33304;52.456;13.328;2023-07-16T03:25:40;36.00;;;34.17;;
47575;SDS011;33304;52.456;13.328;2023-07-16T03:28:07;28.40;;;27.07;;
47575;SDS011;33304;52.456;13.328;2023-07-16T03:30:35;14.03;;;13.43;;
47575;SDS011;33304;52.456;13.328;2023-07-16T03:33:03;19.17;;;18.17;;
47575;SDS011;33304;52.456;13.328;2023-07-16T03:35:30;20.87;;;19.53;;
47575;SDS011;33304;52.456;13.328;2023-07-16T03:37:57;24.47;;;23.17;;
47575;SDS011;33304;52.456;13.328;2023-07-16T03:40:27;12.83;;;12.20;;
47575;SDS011;33304;52.456;13.328;2023-07-16T03:42:54;39.10;;;37.27;;
47575;SDS011;33304;52.456;13.328;2023-07-16T03:45:23;22.80;;;21.63;;
47575;SDS011;33304;52.456;13.328;2023-07-16T03:47:52;10.93;;;10.33;;
47575;SDS011;33304;52.456;13.328;2023-07-16T03:50:19;15.53;;;14.83;;
47575;SDS011;33304;52.456;13.328;2023-07-16T03:52:46;11.97;;;11.40;;
47575;SDS011;33304;52.456;13.328;2023-07-16T03:55:14;19.33;;;18.43;;
47575;SDS011;33304;52.456;13.328;2023-07-16T03:57:42;16.60;;;15.80;;
47575;SDS011;33304;52.456;13.328;2023-07-16T04:00:09;16.23;;;15.50;;
47575;SDS011;33304;52.456;13.328;2023-07-16T04:02:40;16.67;;;15.87;;
47575;SDS011;33304;52.456;13.328;2023-07-16T04:05:12;19.93;;;18.97;;
47575;SDS011;33304;52.456;13.328;2023-07-16T04:07:39;51.40;;;48.97;;
47575;SDS011;33304;52.456;13.328;2023-07-16T04:10:07;21.10;;;20.10;;
47575;SDS011;33304;52.456;13.328;2023-07-16T04:12:34;20.23;;;19.40;;
47575;SDS011;33304;52.456;13.328;2023-07-16T04:15:06;13.27;;;12.67;;
47575;SDS011;33304;52.456;13.328;2023-07-16T04:17:34;10.73;;;10.23;;
47575;SDS011;33304;52.456;13.328;2023-07-16T04:20:01;17.70;;;16.90;;
47575;SDS011;33304;52.456;13.328;2023-07-16T04:22:31;19.73;;;18.80;;
47575;SDS011;33304;52.456;13.328;2023-07-16T04:24:59;10.40;;;9.90;;
47575;SDS011;33304;52.456;13.328;2023-07-16T04:27:26;21.30;;;20.03;;
47575;SDS011;33304;52.456;13.328;2023-07-16T04:29:53;73.23;;;69.03;;
47575;SDS011;33304;52.456;13.328;2023-07-16T04:32:20;59.53;;;56.67;;
47575;SDS011;33304;52.456;13.328;2023-07-16T04:34:47;16.20;;;15.37;;
47575;SDS011;33304;52.456;13.328;2023-07-16T04:37:14;10.60;;;10.13;;
47575;SDS011;33304;52.456;13.328;2023-07-16T04:39:43;13.10;;;12.57;;
47575;SDS011;33304;52.456;13.328;2023-07-16T04:42:10;26.53;;;25.37;;
47575;SDS011;33304;52.456;13.328;2023-07-16T04:44:37;9.67;;;9.23;;
47575;SDS011;33304;52.456;13.328;2023-07-16T04:47:04;21.00;;;20.07;;
47575;SDS011;33304;52.456;13.328;2023-07-16T04:49:33;17.10;;;16.37;;
47575;SDS011;33304;52.456;13.328;2023-07-16T04:52:01;30.33;;;29.03;;
47575;SDS011;33304;52.456;13.328;2023-07-16T04:54:28;16.87;;;16.07;;
47575;SDS011;33304;52.456;13.328;2023-07-16T04:56:57;19.60;;;18.73;;
47575;SDS011;33304;52.456;13.328;2023-07-16T04:59:24;17.97;;;17.13;;
47575;SDS011;33304;52.456;13.328;2023-07-16T05:01:51;18.47;;;17.63;;
47575;SDS011;33304;52.456;13.328;2023-07-16T05:04:18;36.23;;;34.17;;
47575;SDS011;33304;52.456;13.328;2023-07-16T05:06:45;14.17;;;13.57;;
47575;SDS011;33304;52.456;13.328;2023-07-16T05:09:12;16.20;;;15.47;;
47575;SDS011;33304;52.456;13.328;2023-07-16T05:11:39;14.30;;;13.67;;
47575;SDS011;33304;52.456;13.328;2023-07-16T05:14:07;51.97;;;49.53;;
47575;SDS011;33304;52.456;13.328;2023-07-16T05:16:35;29.90;;;28.20;;
47575;SDS011;33304;52.456;13.328;2023-07-16T05:19:02;110.63;;;104.47;;
47575;SDS011;33304;52.456;13.328;2023-07-16T05:21:29;26.90;;;25.50;;
47575;SDS011;33304;52.456;13.328;2023-07-16T05:23:56;14.93;;;14.10;;
47575;SDS011;33304;52.456;13.328;2023-07-16T05:26:23;22.53;;;21.57;;
47575;SDS011;33304;52.456;13.328;2023-07-16T05:28:50;31.37;;;30.07;;
47575;SDS011;33304;52.456;13.328;2023-07-16T05:31:18;15.47;;;14.73;;
47575;SDS011;33304;52.456;13.328;2023-07-16T05:33:45;13.83;;;13.20;;
47575;SDS011;33304;52.456;13.328;2023-07-16T05:36:12;17.70;;;16.80;;
47575;SDS011;33304;52.456;13.328;2023-07-16T05:38:39;9.77;;;9.33;;
47575;SDS011;33304;52.456;13.328;2023-07-16T05:41:06;12.53;;;11.93;;
47575;SDS011;33304;52.456;13.328;2023-07-16T05:43:33;8.10;;;7.63;;
47575;SDS011;33304;52.456;13.328;2023-07-16T05:46:01;13.73;;;13.03;;
47575;SDS011;33304;52.456;13.328;2023-07-16T05:48:29;17.40;;;16.63;;
47575;SDS011;33304;52.456;13.328;2023-07-16T05:50:56;19.20;;;18.40;;
47575;SDS011;33304;52.456;13.328;2023-07-16T05:53:23;17.47;;;16.73;;
47575;SDS011;33304;52.456;13.328;2023-07-16T05:55:50;15.00;;;14.37;;
47575;SDS011;33304;52.456;13.328;2023-07-16T05:58:17;34.40;;;32.93;;
47575;SDS011;33304;52.456;13.328;2023-07-16T06:00:44;21.93;;;21.00;;
47575;SDS011;33304;52.456;13.328;2023-07-16T06:03:11;38.87;;;37.17;;
47575;SDS011;33304;52.456;13.328;2023-07-16T06:05:40;30.47;;;29.13;;
47575;SDS011;33304;52.456;13.328;2023-07-16T06:08:08;38.27;;;36.67;;
47575;SDS011;33304;52.456;13.328;2023-07-16T06:10:35;25.83;;;24.43;;
47575;SDS011;33304;52.456;13.328;2023-07-16T06:13:04;38.00;;;36.43;;
47575;SDS011;33304;52.456;13.328;2023-07-16T06:15:31;19.80;;;18.97;;
47575;SDS011;33304;52.456;13.328;2023-07-16T06:17:58;58.77;;;56.33;;
47575;SDS011;33304;52.456;13.328;2023-07-16T06:20:25;60.37;;;57.87;;
47575;SDS011;33304;52.456;13.328;2023-07-16T06:22:54;66.60;;;63.83;;
47575;SDS011;33304;52.456;13.328;2023-07-16T06:25:21;64.37;;;61.57;;
47575;SDS011;33304;52.456;13.328;2023-07-16T06:27:48;108.20;;;103.63;;
47575;SDS011;33304;52.456;13.328;2023-07-16T06:30:15;87.93;;;84.33;;
47575;SDS011;33304;52.456;13.328;2023-07-16T06:32:42;72.47;;;69.50;;
47575;SDS011;33304;52.456;13.328;2023-07-16T06:35:09;69.50;;;66.73;;
47575;SDS011;33304;52.456;13.328;2023-07-16T06:37:36;32.00;;;30.70;;
47575;SDS011;33304;52.456;13.328;2023-07-16T06:40:05;36.27;;;34.13;;
47575;SDS011;33304;52.456;13.328;2023-07-16T06:42:33;23.57;;;22.53;;
47575;SDS011;33304;52.456;13.328;2023-07-16T06:45:00;6.07;;;5.77;;
47575;SDS011;33304;52.456;13.328;2023-07-16T06:47:28;13.50;;;12.87;;
47575;SDS011;33304;52.456;13.328;2023-07-16T06:49:55;11.33;;;10.67;;
47575;SDS011;33304;52.456;13.328;2023-07-16T06:52:22;21.83;;;20.97;;
47575;SDS011;33304;52.456;13.328;2023-07-16T06:54:53;23.90;;;22.90;;
47575;SDS011;33304;52.456;13.328;2023-07-16T06:57:22;10.00;;;9.50;;
47575;SDS011;33304;52.456;13.328;2023-07-16T06:59:49;9.40;;;8.97;;
47575;SDS011;33304;52.456;13.328;2023-07-16T07:02:17;10.93;;;10.40;;
47575;SDS011;33304;52.456;13.328;2023-07-16T07:04:44;9.83;;;9.43;;
47575;SDS011;33304;52.456;13.328;2023-07-16T07:07:11;10.57;;;10.15;;
47575;SDS011;33304;52.456;13.328;2023-07-16T07:09:38;11.20;;;10.70;;
47575;SDS011;33304;52.456;13.328;2023-07-16T07:12:06;12.70;;;12.17;;
47575;SDS011;33304;52.456;13.328;2023-07-16T07:14:35;15.23;;;14.57;;
47575;SDS011;33304;52.456;13.328;2023-07-16T07:17:02;14.40;;;13.80;;
47575;SDS011;33304;52.456;13.328;2023-07-16T07:19:29;21.13;;;20.13;;
47575;SDS011;33304;52.456;13.328;2023-07-16T07:21:57;7.83;;;7.50;;
47575;SDS011;33304;52.456;13.328;2023-07-16T07:24:25;7.27;;;6.93;;
47575;SDS011;33304;52.456;13.328;2023-07-16T07:26:52;14.13;;;13.53;;
47575;SDS011;33304;52.456;13.328;2023-07-16T07:29:19;14.87;;;14.23;;
47575;SDS011;33304;52.456;13.328;2023-07-16T07:31:47;13.23;;;12.63;;
47575;SDS011;33304;52.456;13.328;2023-07-16T07:34:14;15.80;;;15.10;;
47575;SDS011;33304;52.456;13.328;2023-07-16T07:36:41;14.15;;;13.45;;
47575;SDS011;33304;52.456;13.328;2023-07-16T07:39:08;6.03;;;5.60;;
47575;SDS011;33304;52.456;13.328;2023-07-16T07:41:35;10.67;;;10.17;;
47575;SDS011;33304;52.456;13.328;2023-07-16T07:44:03;11.17;;;10.47;;
47575;SDS011;33304;52.456;13.328;2023-07-16T07:46:30;2.87;;;2.67;;
47575;SDS011;33304;52.456;13.328;2023-07-16T07:48:58;10.17;;;9.70;;
47575;SDS011;33304;52.456;13.328;2023-07-16T07:51:25;14.70;;;14.10;;
47575;SDS011;33304;52.456;13.328;2023-07-16T07:53:52;10.30;;;9.80;;
47575;SDS011;33304;52.456;13.328;2023-07-16T07:56:19;8.87;;;8.47;;
47575;SDS011;33304;52.456;13.328;2023-07-16T07:58:46;4.27;;;4.07;;
47575;SDS011;33304;52.456;13.328;2023-07-16T08:01:13;8.50;;;8.17;;
47575;SDS011;33304;52.456;13.328;2023-07-16T08:03:40;7.03;;;6.73;;
47575;SDS011;33304;52.456;13.328;2023-07-16T08:06:09;9.87;;;9.43;;
47575;SDS011;33304;52.456;13.328;2023-07-16T08:08:37;9.40;;;9.00;;
47575;SDS011;33304;52.456;13.328;2023-07-16T08:11:04;10.90;;;10.43;;
47575;SDS011;33304;52.456;13.328;2023-07-16T08:13:31;2.83;;;2.60;;
47575;SDS011;33304;52.456;13.328;2023-07-16T08:15:58;2.10;;;2.00;;
47575;SDS011;33304;52.456;13.328;2023-07-16T08:18:25;2.13;;;2.03;;
47575;SDS011;33304;52.456;13.328;2023-07-16T08:20:53;2.00;;;1.90;;
47575;SDS011;33304;52.456;13.328;2023-07-16T08:23:21;3.53;;;1.60;;
47575;SDS011;33304;52.456;13.328;2023-07-16T08:25:48;1.77;;;1.47;;
47575;SDS011;33304;52.456;13.328;2023-07-16T08:28:16;2.10;;;1.90;;
47575;SDS011;33304;52.456;13.328;2023-07-16T08:30:45;1.47;;;1.33;;
47575;SDS011;33304;52.456;13.328;2023-07-16T08:33:13;1.30;;;1.20;;
47575;SDS011;33304;52.456;13.328;2023-07-16T08:35:41;1.60;;;1.50;;
47575;SDS011;33304;52.456;13.328;2023-07-16T08:38:08;1.40;;;1.30;;
47575;SDS011;33304;52.456;13.328;2023-07-16T08:40:37;1.70;;;1.60;;
47575;SDS011;33304;52.456;13.328;2023-07-16T08:43:05;1.60;;;1.50;;
47575;SDS011;33304;52.456;13.328;2023-07-16T08:48:05;2.70;;;2.50;;
47575;SDS011;33304;52.456;13.328;2023-07-16T08:50:33;2.90;;;2.70;;
47575;SDS011;33304;52.456;13.328;2023-07-16T08:53:03;2.65;;;2.55;;
47575;SDS011;33304;52.456;13.328;2023-07-16T08:55:31;2.80;;;2.70;;
47575;SDS011;33304;52.456;13.328;2023-07-16T08:58:00;3.20;;;2.83;;
47575;SDS011;33304;52.456;13.328;2023-07-16T09:00:28;2.80;;;2.70;;
47575;SDS011;33304;52.456;13.328;2023-07-16T09:02:56;2.10;;;1.80;;
47575;SDS011;33304;52.456;13.328;2023-07-16T09:05:23;1.65;;;1.55;;
47575;SDS011;33304;52.456;13.328;2023-07-16T09:07:51;1.63;;;1.52;;
47575;SDS011;33304;52.456;13.328;2023-07-16T09:10:18;1.65;;;1.55;;
47575;SDS011;33304;52.456;13.328;2023-07-16T09:12:45;1.73;;;1.63;;
47575;SDS011;33304;52.456;13.328;2023-07-16T09:15:16;1.67;;;1.50;;
47575;SDS011;33304;52.456;13.328;2023-07-16T09:17:46;1.58;;;1.48;;
47575;SDS011;33304;52.456;13.328;2023-07-16T09:20:14;2.17;;;1.83;;
47575;SDS011;33304;52.456;13.328;2023-07-16T09:22:42;5.25;;;1.98;;
47575;SDS011;33304;52.456;13.328;2023-07-16T09:25:09;2.17;;;2.08;;
47575;SDS011;33304;52.456;13.328;2023-07-16T09:27:36;2.00;;;1.90;;
47575;SDS011;33304;52.456;13.328;2023-07-16T09:30:04;1.98;;;1.77;;
47575;SDS011;33304;52.456;13.328;2023-07-16T09:32:34;1.38;;;1.27;;
47575;SDS011;33304;52.456;13.328;2023-07-16T09:35:05;1.52;;;1.42;;
47575;SDS011;33304;52.456;13.328;2023-07-16T09:37:33;1.75;;;1.65;;
47575;SDS011;33304;52.456;13.328;2023-07-16T09:40:02;1.13;;;1.13;;
47575;SDS011;33304;52.456;13.328;2023-07-16T09:42:32;1.70;;;1.60;;
47575;SDS011;33304;52.456;13.328;2023-07-16T09:45:01;1.70;;;1.60;;
47575;SDS011;33304;52.456;13.328;2023-07-16T09:47:28;1.75;;;1.65;;
47575;SDS011;33304;52.456;13.328;2023-07-16T09:49:57;1.77;;;1.67;;
47575;SDS011;33304;52.456;13.328;2023-07-16T09:52:24;1.90;;;1.80;;
47575;SDS011;33304;52.456;13.328;2023-07-16T09:54:54;1.70;;;1.60;;
47575;SDS011;33304;52.456;13.328;2023-07-16T09:57:23;2.45;;;1.75;;
47575;SDS011;33304;52.456;13.328;2023-07-16T09:59:53;1.75;;;1.65;;
47575;SDS011;33304;52.456;13.328;2023-07-16T10:02:25;1.98;;;1.88;;
47575;SDS011;33304;52.456;13.328;2023-07-16T10:04:52;2.13;;;2.03;;
47575;SDS011;33304;52.456;13.328;2023-07-16T10:07:24;2.35;;;1.58;;
47575;SDS011;33304;52.456;13.328;2023-07-16T10:09:53;1.60;;;1.50;;
47575;SDS011;33304;52.456;13.328;2023-07-16T10:12:22;2.20;;;2.10;;
47575;SDS011;33304;52.456;13.328;2023-07-16T10:14:51;2.08;;;1.98;;
47575;SDS011;33304;52.456;13.328;2023-07-16T10:17:19;2.47;;;2.38;;
47575;SDS011;33304;52.456;13.328;2023-07-16T10:19:48;4.80;;;4.50;;
47575;SDS011;33304;52.456;13.328;2023-07-16T10:22:15;4.68;;;4.47;;
47575;SDS011;33304;52.456;13.328;2023-07-16T10:24:43;3.83;;;3.67;;
47575;SDS011;33304;52.456;13.328;2023-07-16T10:27:12;7.65;;;7.35;;
47575;SDS011;33304;52.456;13.328;2023-07-16T10:29:40;6.38;;;6.07;;
47575;SDS011;33304;52.456;13.328;2023-07-16T10:32:07;5.75;;;5.45;;
47575;SDS011;33304;52.456;13.328;2023-07-16T10:34:35;6.70;;;6.38;;
47575;SDS011;33304;52.456;13.328;2023-07-16T10:37:02;4.68;;;4.47;;
47575;SDS011;33304;52.456;13.328;2023-07-16T10:39:30;7.05;;;6.55;;
47575;SDS011;33304;52.456;13.328;2023-07-16T10:41:58;7.10;;;6.80;;
47575;SDS011;33304;52.456;13.328;2023-07-16T10:44:27;6.18;;;5.90;;
47575;SDS011;33304;52.456;13.328;2023-07-16T10:46:54;5.30;;;5.00;;
47575;SDS011;33304;52.456;13.328;2023-07-16T10:49:28;4.00;;;3.80;;
47575;SDS011;33304;52.456;13.328;2023-07-16T10:51:57;7.13;;;6.63;;
47575;SDS011;33304;52.456;13.328;2023-07-16T10:54:25;6.53;;;6.22;;
47575;SDS011;33304;52.456;13.328;2023-07-16T10:56:53;7.30;;;6.90;;
47575;SDS011;33304;52.456;13.328;2023-07-16T10:59:21;6.30;;;6.00;;
47575;SDS011;33304;52.456;13.328;2023-07-16T11:01:48;4.90;;;4.60;;
47575;SDS011;33304;52.456;13.328;2023-07-16T11:04:16;6.45;;;6.15;;
47575;SDS011;33304;52.456;13.328;2023-07-16T11:06:43;6.82;;;6.53;;
47575;SDS011;33304;52.456;13.328;2023-07-16T11:09:10;10.35;;;9.85;;
47575;SDS011;33304;52.456;13.328;2023-07-16T11:11:38;10.52;;;10.13;;
47575;SDS011;33304;52.456;13.328;2023-07-16T11:14:06;8.45;;;8.05;;
47575;SDS011;33304;52.456;13.328;2023-07-16T11:16:35;8.15;;;7.75;;
47575;SDS011;33304;52.456;13.328;2023-07-16T11:19:03;8.82;;;8.43;;
47575;SDS011;33304;52.456;13.328;2023-07-16T11:21:32;9.18;;;8.77;;
47575;SDS011;33304;52.456;13.328;2023-07-16T11:24:09;8.27;;;7.78;;
47575;SDS011;33304;52.456;13.328;2023-07-16T11:26:39;8.38;;;7.88;;
47575;SDS011;33304;52.456;13.328;2023-07-16T11:29:15;9.50;;;9.13;;
47575;SDS011;33304;52.456;13.328;2023-07-16T11:31:51;7.70;;;7.40;;
47575;SDS011;33304;52.456;13.328;2023-07-16T11:34:59;6.85;;;6.55;;
47575;SDS011;33304;52.456;13.328;2023-07-16T11:37:28;5.70;;;5.40;;
47575;SDS011;33304;52.456;13.328;2023-07-16T11:39:58;5.47;;;5.07;;
47575;SDS011;33304;52.456;13.328;2023-07-16T11:42:29;3.55;;;3.35;;
47575;SDS011;33304;52.456;13.328;2023-07-16T11:44:57;5.10;;;4.85;;
47575;SDS011;33304;52.456;13.328;2023-07-16T11:47:27;5.40;;;5.10;;
47575;SDS011;33304;52.456;13.328;2023-07-16T11:49:54;3.90;;;3.72;;
47575;SDS011;33304;52.456;13.328;2023-07-16T11:52:23;4.38;;;4.18;;
47575;SDS011;33304;52.456;13.328;2023-07-16T11:54:51;3.33;;;3.13;;
47575;SDS011;33304;52.456;13.328;2023-07-16T11:57:18;3.95;;;3.75;;
47575;SDS011;33304;52.456;13.328;2023-07-16T11:59:47;4.30;;;4.10;;
47575;SDS011;33304;52.456;13.328;2023-07-16T12:02:14;4.88;;;4.68;;
47575;SDS011;33304;52.456;13.328;2023-07-16T12:04:42;7.72;;;7.32;;
47575;SDS011;33304;52.456;13.328;2023-07-16T12:07:09;6.32;;;6.03;;
47575;SDS011;33304;52.456;13.328;2023-07-16T12:09:37;6.38;;;6.07;;
47575;SDS011;33304;52.456;13.328;2023-07-16T12:12:04;4.60;;;4.35;;
47575;SDS011;33304;52.456;13.328;2023-07-16T12:14:32;4.63;;;4.43;;
47575;SDS011;33304;52.456;13.328;2023-07-16T12:16:59;4.53;;;4.32;;
47575;SDS011;33304;52.456;13.328;2023-07-16T12:19:26;5.03;;;4.72;;
47575;SDS011;33304;52.456;13.328;2023-07-16T12:21:55;4.85;;;4.50;;
47575;SDS011;33304;52.456;13.328;2023-07-16T12:24:24;4.28;;;4.07;;
47575;SDS011;33304;52.456;13.328;2023-07-16T12:26:51;5.57;;;5.28;;
47575;SDS011;33304;52.456;13.328;2023-07-16T12:29:18;5.10;;;4.90;;
47575;SDS011;33304;52.456;13.328;2023-07-16T12:31:46;4.88;;;4.57;;
47575;SDS011;33304;52.456;13.328;2023-07-16T12:34:13;6.70;;;6.40;;
47575;SDS011;33304;52.456;13.328;2023-07-16T12:36:40;5.70;;;5.40;;
47575;SDS011;33304;52.456;13.328;2023-07-16T12:39:09;4.10;;;3.90;;
47575;SDS011;33304;52.456;13.328;2023-07-16T12:41:36;4.80;;;4.50;;
47575;SDS011;33304;52.456;13.328;2023-07-16T12:44:03;6.82;;;6.43;;
47575;SDS011;33304;52.456;13.328;2023-07-16T12:46:30;7.78;;;7.43;;
47575;SDS011;33304;52.456;13.328;2023-07-16T12:48:57;9.02;;;8.63;;
47575;SDS011;33304;52.456;13.328;2023-07-16T12:51:24;5.05;;;4.85;;
47575;SDS011;33304;52.456;13.328;2023-07-16T12:53:51;4.10;;;3.90;;
47575;SDS011;33304;52.456;13.328;2023-07-16T12:56:20;6.70;;;6.40;;
47575;SDS011;33304;52.456;13.328;2023-07-16T12:58:47;5.05;;;4.78;;
47575;SDS011;33304;52.456;13.328;2023-07-16T13:01:14;4.35;;;4.05;;
47575;SDS011;33304;52.456;13.328;2023-07-16T13:03:41;4.05;;;3.85;;
47575;SDS011;33304;52.456;13.328;2023-07-16T13:06:08;5.88;;;5.60;;
47575;SDS011;33304;52.456;13.328;2023-07-16T13:08:35;4.75;;;4.55;;
47575;SDS011;33304;52.456;13.328;2023-07-16T13:11:02;4.35;;;4.15;;
47575;SDS011;33304;52.456;13.328;2023-07-16T13:13:31;4.30;;;4.10;;
47575;SDS011;33304;52.456;13.328;2023-07-16T13:15:58;7.35;;;7.05;;
47575;SDS011;33304;52.456;13.328;2023-07-16T13:18:25;5.40;;;5.13;;
47575;SDS011;33304;52.456;13.328;2023-07-16T13:20:52;5.78;;;5.47;;
47575;SDS011;33304;52.456;13.328;2023-07-16T13:23:19;4.45;;;4.25;;
47575;SDS011;33304;52.456;13.328;2023-07-16T13:25:46;5.07;;;4.88;;
47575;SDS011;33304;52.456;13.328;2023-07-16T13:28:16;4.30;;;4.10;;
47575;SDS011;33304;52.456;13.328;2023-07-16T13:30:45;4.70;;;4.50;;
47575;SDS011;33304;52.456;13.328;2023-07-16T13:33:12;5.00;;;4.70;;
47575;SDS011;33304;52.456;13.328;2023-07-16T13:35:39;5.38;;;5.18;;
47575;SDS011;33304;52.456;13.328;2023-07-16T13:38:06;6.05;;;5.75;;
47575;SDS011;33304;52.456;13.328;2023-07-16T13:40:33;8.88;;;8.48;;
47575;SDS011;33304;52.456;13.328;2023-07-16T13:43:00;7.55;;;7.25;;
47575;SDS011;33304;52.456;13.328;2023-07-16T13:45:27;5.95;;;5.75;;
47575;SDS011;33304;52.456;13.328;2023-07-16T13:47:56;5.32;;;5.07;;
47575;SDS011;33304;52.456;13.328;2023-07-16T13:50:23;6.57;;;6.28;;
47575;SDS011;33304;52.456;13.328;2023-07-16T13:52:50;5.43;;;5.13;;
47575;SDS011;33304;52.456;13.328;2023-07-16T13:55:17;4.68;;;4.47;;
47575;SDS011;33304;52.456;13.328;2023-07-16T13:57:45;4.53;;;4.32;;
47575;SDS011;33304;52.456;13.328;2023-07-16T14:00:13;5.32;;;4.85;;
47575;SDS011;33304;52.456;13.328;2023-07-16T14:02:41;5.28;;;5.07;;
47575;SDS011;33304;52.456;13.328;2023-07-16T14:05:10;4.90;;;4.70;;
47575;SDS011;33304;52.456;13.328;2023-07-16T14:07:37;7.13;;;6.47;;
47575;SDS011;33304;52.456;13.328;2023-07-16T14:10:04;6.45;;;6.15;;
47575;SDS011;33304;52.456;13.328;2023-07-16T14:12:32;6.88;;;6.57;;
47575;SDS011;33304;52.456;13.328;2023-07-16T14:15:00;5.80;;;5.50;;
47575;SDS011;33304;52.456;13.328;2023-07-16T14:17:27;8.93;;;8.52;;
47575;SDS011;33304;52.456;13.328;2023-07-16T14:19:54;8.27;;;7.57;;
47575;SDS011;33304;52.456;13.328;2023-07-16T14:22:22;7.57;;;7.13;;
47575;SDS011;33304;52.456;13.328;2023-07-16T14:24:53;6.65;;;6.35;;
47575;SDS011;33304;52.456;13.328;2023-07-16T14:27:20;4.53;;;4.32;;
47575;SDS011;33304;52.456;13.328;2023-07-16T14:29:48;5.70;;;5.47;;